createdAt,value
2017-11-05T00:01:57.399Z,99.90
2017-11-05T00:04:25.089Z,99.90
2017-11-05T00:06:52.829Z,99.90
2017-11-05T00:09:20.592Z,99.90
2017-11-05T00:11:48.232Z,99.90
2017-11-05T00:14:15.918Z,99.90
2017-11-05T00:16:43.709Z,99.90
2017-11-05T00:19:11.359Z,99.90
2017-11-05T00:21:39.002Z,99.90
2017-11-05T00:24:06.708Z,99.90
2017-11-05T00:26:34.348Z,99.90
2017-11-05T00:29:01.989Z,99.90
2017-11-05T00:31:30.483Z,99.90
2017-11-05T00:33:58.143Z,99.90
2017-11-05T00:36:25.804Z,99.90
2017-11-05T00:38:53.371Z,99.90
2017-11-05T00:41:20.921Z,99.90
2017-11-05T00:43:48.580Z,99.90
2017-11-05T00:46:16.214Z,99.90
2017-11-05T00:48:43.790Z,99.90
2017-11-05T00:51:11.465Z,99.90
2017-11-05T00:53:39.144Z,99.90
2017-11-05T00:56:06.687Z,99.90
2017-11-05T00:58:34.210Z,99.90
2017-11-05T01:01:01.738Z,99.90
2017-11-05T01:03:29.383Z,99.90
2017-11-05T01:05:57.075Z,99.90
2017-11-05T01:08:24.579Z,99.90
2017-11-05T01:10:52.079Z,99.90
2017-11-05T01:13:19.912Z,99.90
2017-11-05T01:15:47.630Z,99.90
2017-11-05T01:18:15.147Z,99.90
2017-11-05T01:20:42.630Z,99.90
2017-11-05T01:23:10.118Z,99.90
2017-11-05T01:25:38.506Z,99.90
2017-11-05T01:28:06.765Z,99.90
2017-11-05T01:30:34.255Z,99.90
2017-11-05T01:33:01.771Z,99.90
2017-11-05T01:35:29.398Z,99.90
2017-11-05T01:37:56.888Z,99.90
2017-11-05T01:40:24.388Z,99.90
2017-11-05T01:42:51.922Z,99.90
2017-11-05T01:45:19.465Z,99.90
2017-11-05T01:47:47.097Z,99.90
2017-11-05T01:50:14.707Z,99.90
2017-11-05T01:52:43.040Z,99.90
2017-11-05T01:55:10.692Z,99.90
2017-11-05T01:57:38.188Z,99.90
2017-11-05T02:00:05.686Z,99.90
2017-11-05T02:02:33.967Z,99.90
2017-11-05T02:05:02.240Z,99.90
2017-11-05T02:07:30.501Z,99.90
2017-11-05T02:09:57.987Z,99.90
2017-11-05T02:12:26.243Z,99.90
2017-11-05T02:14:53.725Z,99.90
2017-11-05T02:17:21.992Z,99.90
2017-11-05T02:19:50.243Z,99.90
2017-11-05T02:22:17.734Z,99.90
2017-11-05T02:24:45.999Z,99.90
2017-11-05T02:27:14.266Z,99.90
2017-11-05T02:29:41.752Z,99.90
2017-11-05T02:32:10.014Z,99.90
2017-11-05T02:34:38.269Z,99.90
2017-11-05T02:37:05.771Z,99.90
2017-11-05T02:39:33.266Z,99.90
2017-11-05T02:42:00.756Z,99.90
2017-11-05T02:44:29.759Z,99.90
2017-11-05T02:46:58.022Z,99.90
2017-11-05T02:49:25.520Z,99.90
2017-11-05T02:51:53.011Z,99.90
2017-11-05T02:54:20.512Z,99.90
2017-11-05T02:56:48.769Z,99.90
2017-11-05T02:59:16.264Z,99.90
2017-11-05T03:01:44.527Z,99.90
2017-11-05T03:04:12.773Z,99.90
2017-11-05T03:06:40.266Z,99.90
2017-11-05T03:09:08.524Z,99.90
2017-11-05T03:11:36.030Z,99.90
2017-11-05T03:14:03.522Z,99.90
2017-11-05T03:16:31.015Z,99.90
2017-11-05T03:18:59.274Z,99.90
2017-11-05T03:21:26.757Z,99.90
2017-11-05T03:23:55.001Z,99.90
2017-11-05T03:26:22.491Z,99.90
2017-11-05T03:28:50.750Z,99.90
2017-11-05T03:31:18.259Z,99.90
2017-11-05T03:33:45.763Z,99.90
2017-11-05T03:36:13.306Z,99.90
2017-11-05T03:38:40.805Z,99.90
2017-11-05T03:41:09.050Z,99.90
2017-11-05T03:43:36.544Z,99.90
2017-11-05T03:46:04.804Z,99.90
2017-11-05T03:48:32.292Z,99.90
2017-11-05T03:51:00.542Z,99.90
2017-11-05T03:53:28.032Z,99.90
2017-11-05T03:55:55.519Z,99.90
2017-11-05T03:58:23.015Z,99.90
2017-11-05T04:00:50.502Z,99.90
2017-11-05T04:03:18.751Z,99.90
2017-11-05T04:05:46.237Z,99.90
2017-11-05T04:08:14.503Z,99.90
2017-11-05T04:10:42.753Z,99.90
2017-11-05T04:13:10.240Z,99.90
2017-11-05T04:15:38.523Z,99.90
2017-11-05T04:18:06.774Z,99.90
2017-11-05T04:20:34.264Z,99.90
2017-11-05T04:23:02.514Z,99.90
2017-11-05T04:25:30.016Z,99.90
2017-11-05T04:27:57.506Z,99.90
2017-11-05T04:30:25.005Z,99.90
2017-11-05T04:32:53.268Z,99.90
2017-11-05T04:35:20.767Z,99.90
2017-11-05T04:37:48.259Z,99.90
2017-11-05T04:40:15.746Z,99.90
2017-11-05T04:42:43.241Z,99.90
2017-11-05T04:45:10.739Z,99.90
2017-11-05T04:47:38.240Z,99.90
2017-11-05T04:50:06.503Z,99.90
2017-11-05T04:52:33.997Z,99.90
2017-11-05T04:55:01.478Z,99.90
2017-11-05T04:57:28.979Z,99.90
2017-11-05T04:59:56.480Z,99.90
2017-11-05T05:02:23.974Z,99.90
2017-11-05T05:04:51.480Z,99.90
2017-11-05T05:07:19.730Z,99.90
2017-11-05T05:09:47.209Z,99.90
2017-11-05T05:12:15.469Z,99.90
2017-11-05T05:14:42.958Z,99.90
2017-11-05T05:17:10.452Z,99.90
2017-11-05T05:19:37.952Z,99.90
2017-11-05T05:22:05.446Z,99.90
2017-11-05T05:24:32.938Z,99.90
2017-11-05T05:27:00.430Z,99.90
2017-11-05T05:29:27.925Z,99.90
2017-11-05T05:31:55.434Z,99.90
2017-11-05T05:34:22.921Z,99.90
2017-11-05T05:36:51.179Z,99.90
2017-11-05T05:39:18.715Z,99.90
2017-11-05T05:41:46.237Z,99.90
2017-11-05T05:44:13.730Z,99.90
2017-11-05T05:46:41.231Z,99.90
2017-11-05T05:49:09.590Z,99.90
2017-11-05T05:51:37.207Z,99.90
2017-11-05T05:54:04.699Z,99.90
2017-11-05T05:56:32.200Z,99.90
2017-11-05T05:59:00.541Z,99.90
2017-11-05T06:01:28.043Z,99.90
2017-11-05T06:03:55.669Z,99.90
2017-11-05T06:06:23.227Z,99.90
2017-11-05T06:08:51.476Z,99.90
2017-11-05T06:11:19.124Z,99.90
2017-11-05T06:13:46.660Z,99.90
2017-11-05T06:16:14.208Z,99.90
2017-11-05T06:18:42.479Z,99.90
2017-11-05T06:21:10.030Z,99.90
2017-11-05T06:23:37.530Z,99.90
2017-11-05T06:26:05.075Z,99.90
2017-11-05T06:28:33.380Z,99.90
2017-11-05T06:31:00.866Z,99.90
2017-11-05T06:33:28.403Z,99.90
2017-11-05T06:35:55.930Z,99.90
2017-11-05T06:38:24.436Z,99.90
2017-11-05T06:40:52.004Z,99.90
2017-11-05T06:43:19.588Z,99.90
2017-11-05T06:45:47.084Z,99.90
2017-11-05T06:48:15.359Z,99.90
2017-11-05T06:50:42.833Z,99.90
2017-11-05T06:53:11.102Z,99.90
2017-11-05T06:55:39.354Z,99.90
2017-11-05T06:58:06.861Z,99.90
2017-11-05T07:00:34.466Z,99.90
2017-11-05T07:03:02.084Z,99.90
2017-11-05T07:05:29.632Z,99.90
2017-11-05T07:07:57.217Z,99.90
2017-11-05T07:10:24.706Z,99.90
2017-11-05T07:12:52.189Z,99.90
2017-11-05T07:15:19.796Z,99.90
2017-11-05T07:17:47.281Z,99.90
2017-11-05T07:20:14.885Z,99.90
2017-11-05T07:22:43.148Z,99.90
2017-11-05T07:25:12.138Z,99.90
2017-11-05T07:27:39.721Z,99.90
2017-11-05T07:30:07.969Z,99.90
2017-11-05T07:32:35.459Z,99.90
2017-11-05T07:35:03.722Z,99.90
2017-11-05T07:37:31.982Z,99.90
2017-11-05T07:39:59.481Z,99.90
2017-11-05T07:42:26.970Z,99.90
2017-11-05T07:44:54.518Z,99.90
2017-11-05T07:47:22.015Z,99.90
2017-11-05T07:49:49.506Z,99.90
2017-11-05T07:52:17.758Z,99.90
2017-11-05T07:54:45.238Z,99.90
2017-11-05T07:57:14.120Z,99.90
2017-11-05T07:59:41.618Z,99.90
2017-11-05T08:02:09.111Z,99.90
2017-11-05T08:04:36.604Z,99.90
2017-11-05T08:07:04.854Z,99.90
2017-11-05T08:09:32.343Z,99.90
2017-11-05T08:12:00.585Z,99.90
2017-11-05T08:14:28.076Z,99.90
2017-11-05T08:16:56.340Z,99.90
2017-11-05T08:19:24.594Z,99.90
2017-11-05T08:21:52.105Z,99.90
2017-11-05T08:24:20.368Z,99.90
2017-11-05T08:26:48.646Z,99.90
2017-11-05T08:29:16.888Z,99.90
2017-11-05T08:31:44.383Z,99.90
2017-11-05T08:34:12.650Z,99.90
2017-11-05T08:36:40.918Z,99.90
2017-11-05T08:39:08.412Z,99.90
2017-11-05T08:41:35.893Z,99.90
2017-11-05T08:44:03.373Z,99.90
2017-11-05T08:46:30.887Z,99.90
2017-11-05T08:48:59.141Z,99.90
2017-11-05T08:51:27.394Z,99.90
2017-11-05T08:53:54.883Z,99.90
2017-11-05T08:56:23.139Z,99.90
2017-11-05T08:58:51.407Z,99.90
2017-11-05T09:01:18.883Z,99.90
2017-11-05T09:03:46.367Z,99.90
2017-11-05T09:06:14.626Z,99.90
2017-11-05T09:08:42.887Z,99.90
2017-11-05T09:11:10.379Z,99.90
2017-11-05T09:13:38.617Z,99.90
2017-11-05T09:16:06.107Z,99.90
2017-11-05T09:18:34.354Z,99.20
2017-11-05T09:21:01.840Z,99.20
2017-11-05T09:23:30.100Z,98.80
2017-11-05T09:25:57.591Z,98.70
2017-11-05T09:28:25.078Z,98.60
2017-11-05T09:30:52.561Z,98.20
2017-11-05T09:33:20.052Z,98.30
2017-11-05T09:35:48.308Z,98.20
2017-11-05T09:38:15.788Z,98.20
2017-11-05T09:40:44.045Z,98.00
2017-11-05T09:43:11.536Z,98.00
2017-11-05T09:45:39.786Z,99.00
2017-11-05T09:48:07.272Z,98.90
2017-11-05T09:50:35.532Z,99.70
2017-11-05T09:53:03.787Z,99.80
2017-11-05T09:55:31.283Z,99.80
2017-11-05T09:57:59.549Z,99.90
2017-11-05T10:00:27.803Z,99.90
2017-11-05T10:02:55.296Z,99.90
2017-11-05T10:05:23.593Z,99.90
2017-11-05T10:07:51.091Z,99.90
2017-11-05T10:10:18.584Z,99.90
2017-11-05T10:12:46.835Z,99.90
2017-11-05T10:15:14.320Z,99.90
2017-11-05T10:17:42.573Z,99.90
2017-11-05T10:20:10.068Z,99.90
2017-11-05T10:22:37.571Z,99.90
2017-11-05T10:25:05.067Z,99.90
2017-11-05T10:27:33.318Z,99.90
2017-11-05T10:30:00.818Z,99.90
2017-11-05T10:32:29.066Z,99.90
2017-11-05T10:34:56.544Z,99.90
2017-11-05T10:37:24.798Z,99.90
2017-11-05T10:39:52.286Z,99.90
2017-11-05T10:42:20.552Z,99.90
2017-11-05T10:44:48.805Z,99.90
2017-11-05T10:47:16.303Z,99.90
2017-11-05T10:49:44.566Z,99.90
2017-11-05T10:52:12.831Z,99.90
2017-11-05T10:54:40.321Z,99.90
2017-11-05T10:57:08.650Z,99.90
2017-11-05T10:59:36.165Z,99.90
2017-11-05T11:02:03.668Z,99.90
2017-11-05T11:04:31.163Z,99.90
2017-11-05T11:06:59.434Z,99.90
2017-11-05T11:09:28.759Z,99.90
2017-11-05T11:11:56.263Z,99.90
2017-11-05T11:14:23.762Z,99.90
2017-11-05T11:16:52.179Z,99.90
2017-11-05T11:19:19.846Z,99.90
2017-11-05T11:21:47.418Z,99.90
2017-11-05T11:24:15.852Z,99.90
2017-11-05T11:26:44.177Z,99.90
2017-11-05T11:29:11.706Z,99.90
2017-11-05T11:31:39.286Z,99.90
2017-11-05T11:34:06.842Z,99.90
2017-11-05T11:36:34.510Z,99.90
2017-11-05T11:39:02.061Z,99.90
2017-11-05T11:41:29.559Z,99.90
2017-11-05T11:43:57.056Z,99.90
2017-11-05T11:46:25.326Z,99.90
2017-11-05T11:48:53.589Z,99.90
2017-11-05T11:51:21.903Z,99.90
2017-11-05T11:53:49.544Z,99.90
2017-11-05T11:56:17.838Z,99.90
2017-11-05T11:58:45.403Z,99.90
2017-11-05T12:01:13.065Z,99.90
2017-11-05T12:03:40.546Z,99.90
2017-11-05T12:06:08.088Z,99.90
2017-11-05T12:08:35.761Z,99.90
2017-11-05T12:11:03.497Z,99.90
2017-11-05T12:13:31.834Z,99.90
2017-11-05T12:15:59.391Z,99.90
2017-11-05T12:18:27.119Z,99.90
2017-11-05T12:20:54.799Z,99.90
2017-11-05T12:23:22.286Z,99.90
2017-11-05T12:25:50.913Z,99.90
2017-11-05T12:28:19.173Z,99.90
2017-11-05T12:30:46.675Z,99.90
2017-11-05T12:33:14.201Z,99.90
2017-11-05T12:35:42.516Z,99.90
2017-11-05T12:38:10.387Z,99.90
2017-11-05T12:40:38.287Z,99.90
2017-11-05T12:43:06.055Z,99.90
2017-11-05T12:45:33.741Z,99.90
2017-11-05T12:48:02.030Z,99.90
2017-11-05T12:50:30.894Z,99.90
2017-11-05T12:52:58.386Z,99.90
2017-11-05T12:55:26.131Z,99.90
2017-11-05T12:57:54.465Z,99.90
2017-11-05T13:00:21.970Z,99.90
2017-11-05T13:02:51.629Z,99.90
2017-11-05T13:05:19.181Z,99.90
2017-11-05T13:07:46.743Z,99.90
2017-11-05T13:10:14.236Z,99.90
2017-11-05T13:12:41.767Z,99.90
2017-11-05T13:15:09.257Z,99.90
2017-11-05T13:17:36.773Z,99.90
2017-11-05T13:20:04.257Z,99.90
2017-11-05T13:22:31.803Z,99.90
2017-11-05T13:24:59.296Z,99.90
2017-11-05T13:27:26.795Z,99.90
2017-11-05T13:29:54.304Z,99.90
2017-11-05T13:32:21.794Z,99.90
2017-11-05T13:34:50.035Z,99.90
2017-11-05T13:37:17.514Z,99.90
2017-11-05T13:39:45.011Z,99.90
2017-11-05T13:42:12.511Z,99.90
2017-11-05T13:44:40.006Z,99.90
2017-11-05T13:47:08.311Z,99.90
2017-11-05T13:49:35.791Z,99.90
2017-11-05T13:52:03.377Z,99.90
2017-11-05T13:54:30.883Z,99.90
2017-11-05T13:56:59.135Z,99.90
2017-11-05T13:59:26.645Z,99.90
2017-11-05T14:01:54.134Z,99.90
2017-11-05T14:04:21.615Z,99.90
2017-11-05T14:06:49.926Z,99.90
2017-11-05T14:09:17.417Z,99.90
2017-11-05T14:11:44.930Z,99.90
2017-11-05T14:14:13.240Z,99.90
2017-11-05T14:16:40.761Z,99.90
2017-11-05T14:19:09.002Z,99.90
2017-11-05T14:21:36.509Z,99.90
2017-11-05T14:24:04.023Z,99.90
2017-11-05T14:26:31.506Z,99.90
2017-11-05T14:28:59.790Z,99.90
2017-11-05T14:31:28.060Z,99.90
2017-11-05T14:33:56.338Z,99.90
2017-11-05T14:36:23.874Z,99.90
2017-11-05T14:38:51.351Z,99.90
2017-11-05T14:41:19.659Z,99.90
2017-11-05T14:43:47.186Z,99.90
2017-11-05T14:46:14.679Z,99.90
2017-11-05T14:48:42.186Z,99.90
2017-11-05T14:51:09.715Z,99.90
2017-11-05T14:53:37.202Z,99.90
2017-11-05T14:56:04.689Z,99.90
2017-11-05T14:58:32.182Z,99.90
2017-11-05T15:00:59.723Z,99.90
2017-11-05T15:03:28.004Z,99.90
2017-11-05T15:05:56.292Z,99.90
2017-11-05T15:08:23.829Z,99.90
2017-11-05T15:10:52.083Z,99.90
2017-11-05T15:13:19.586Z,99.90
2017-11-05T15:15:47.130Z,99.90
2017-11-05T15:18:15.378Z,99.90
2017-11-05T15:20:42.925Z,99.90
2017-11-05T15:23:10.447Z,99.90
2017-11-05T15:25:37.970Z,99.90
2017-11-05T15:28:05.475Z,99.90
2017-11-05T15:30:32.968Z,99.90
2017-11-05T15:33:00.479Z,99.90
2017-11-05T15:35:28.010Z,99.90
2017-11-05T15:37:55.582Z,99.90
2017-11-05T15:40:23.875Z,99.90
2017-11-05T15:42:52.147Z,99.90
2017-11-05T15:45:20.417Z,99.90
2017-11-05T15:47:48.704Z,99.90
2017-11-05T15:50:16.972Z,99.90
2017-11-05T15:52:44.636Z,99.90
2017-11-05T15:55:13.032Z,99.90
2017-11-05T15:57:41.294Z,99.90
2017-11-05T16:00:09.658Z,99.90
2017-11-05T16:02:38.193Z,99.90
2017-11-05T16:05:06.262Z,99.90
2017-11-05T16:07:33.821Z,99.90
2017-11-05T16:10:01.307Z,99.90
2017-11-05T16:12:28.854Z,99.90
2017-11-05T16:14:56.505Z,99.90
2017-11-05T16:17:24.085Z,99.90
2017-11-05T16:19:51.584Z,99.90
2017-11-05T16:22:19.854Z,99.90
2017-11-05T16:24:47.353Z,99.90
2017-11-05T16:27:14.850Z,99.90
2017-11-05T16:29:42.382Z,99.90
2017-11-05T16:32:09.917Z,99.90
2017-11-05T16:34:38.200Z,99.90
2017-11-05T16:37:05.695Z,99.90
2017-11-05T16:39:33.189Z,99.90
2017-11-05T16:42:00.675Z,99.90
2017-11-05T16:44:28.240Z,99.90
2017-11-05T16:46:55.740Z,99.90
2017-11-05T16:49:23.246Z,99.90
2017-11-05T16:51:51.689Z,99.90
2017-11-05T16:54:19.261Z,99.90
2017-11-05T16:56:46.878Z,99.90
2017-11-05T16:59:14.437Z,99.90
2017-11-05T17:01:42.102Z,99.90
2017-11-05T17:04:09.585Z,99.90
2017-11-05T17:06:37.103Z,99.90
2017-11-05T17:09:04.651Z,99.90
2017-11-05T17:11:32.915Z,99.90
2017-11-05T17:14:01.230Z,99.90
2017-11-05T17:16:28.724Z,99.90
2017-11-05T17:18:56.210Z,99.90
2017-11-05T17:21:24.467Z,99.90
2017-11-05T17:23:51.955Z,99.90
2017-11-05T17:26:20.215Z,99.90
2017-11-05T17:28:47.698Z,99.90
2017-11-05T17:31:15.963Z,99.90
2017-11-05T17:33:44.215Z,99.90
2017-11-05T17:36:11.715Z,99.90
2017-11-05T17:38:40.011Z,99.90
2017-11-05T17:41:07.554Z,99.90
2017-11-05T17:43:35.055Z,99.90
2017-11-05T17:46:02.556Z,99.90
2017-11-05T17:48:30.804Z,99.90
2017-11-05T17:50:58.356Z,99.90
2017-11-05T17:53:25.863Z,99.90
2017-11-05T17:55:54.126Z,99.90
2017-11-05T17:58:21.651Z,99.90
2017-11-05T18:00:49.291Z,99.90
2017-11-05T18:03:16.819Z,99.90
2017-11-05T18:05:44.413Z,99.90
2017-11-05T18:08:12.325Z,99.90
2017-11-05T18:10:40.074Z,99.90
2017-11-05T18:13:09.458Z,99.90
2017-11-05T18:15:37.043Z,99.90
2017-11-05T18:18:04.954Z,99.90
2017-11-05T18:20:33.527Z,99.90
2017-11-05T18:23:01.777Z,99.90
2017-11-05T18:25:29.276Z,99.90
2017-11-05T18:27:59.116Z,99.90
2017-11-05T18:30:27.893Z,99.90
2017-11-05T18:32:55.435Z,99.90
2017-11-05T18:35:24.022Z,99.90
2017-11-05T18:37:53.319Z,99.90
2017-11-05T18:40:22.550Z,99.90
2017-11-05T18:42:50.473Z,99.90
2017-11-05T18:45:18.901Z,99.90
2017-11-05T18:47:47.245Z,99.90
2017-11-05T18:50:16.288Z,99.90
2017-11-05T18:52:44.551Z,99.90
2017-11-05T18:55:13.683Z,99.90
2017-11-05T18:57:41.694Z,99.90
2017-11-05T19:00:09.691Z,99.90
2017-11-05T19:02:38.116Z,99.90
2017-11-05T19:05:05.755Z,99.90
2017-11-05T19:07:33.553Z,99.90
2017-11-05T19:10:01.076Z,99.90
2017-11-05T19:12:28.712Z,99.90
2017-11-05T19:14:56.309Z,99.90
2017-11-05T19:17:24.020Z,99.90
2017-11-05T19:19:52.281Z,99.90
2017-11-05T19:22:19.755Z,99.90
2017-11-05T19:24:48.024Z,99.90
2017-11-05T19:27:16.297Z,99.90
2017-11-05T19:29:44.646Z,99.90
2017-11-05T19:32:12.144Z,99.90
2017-11-05T19:34:40.451Z,99.90
2017-11-05T19:37:07.938Z,99.90
2017-11-05T19:39:35.629Z,99.90
2017-11-05T19:42:03.985Z,98.70
2017-11-05T19:44:31.519Z,98.70
2017-11-05T19:46:59.040Z,97.30
2017-11-05T19:49:27.780Z,95.90
2017-11-05T19:51:55.310Z,95.70
2017-11-05T19:54:22.811Z,95.60
2017-11-05T19:56:50.362Z,95.90
2017-11-05T19:59:17.868Z,98.70
2017-11-05T20:01:46.129Z,98.40
2017-11-05T20:04:13.652Z,98.30
2017-11-05T20:06:41.206Z,99.90
2017-11-05T20:09:08.763Z,99.90
2017-11-05T20:11:36.265Z,99.90
2017-11-05T20:14:03.751Z,99.90
2017-11-05T20:16:32.012Z,99.90
2017-11-05T20:19:01.058Z,99.90
2017-11-05T20:21:28.571Z,99.90
2017-11-05T20:23:56.846Z,99.90
2017-11-05T20:26:24.453Z,99.90
2017-11-05T20:28:51.974Z,99.90
2017-11-05T20:31:20.249Z,99.90
2017-11-05T20:33:48.590Z,99.90
2017-11-05T20:36:16.073Z,99.90
2017-11-05T20:38:43.574Z,99.90
2017-11-05T20:41:11.098Z,99.90
2017-11-05T20:43:38.586Z,99.90
2017-11-05T20:46:06.075Z,99.90
2017-11-05T20:48:33.656Z,99.90
2017-11-05T20:51:01.163Z,99.90
2017-11-05T20:53:29.435Z,99.90
2017-11-05T20:55:56.959Z,99.90
2017-11-05T20:58:24.463Z,99.90
2017-11-05T21:00:52.011Z,99.90
2017-11-05T21:03:20.308Z,99.90
2017-11-05T21:05:47.840Z,99.90
2017-11-05T21:08:16.108Z,99.90
2017-11-05T21:10:43.808Z,99.90
2017-11-05T21:13:11.285Z,99.90
2017-11-05T21:15:38.779Z,99.90
2017-11-05T21:18:06.285Z,99.90
2017-11-05T21:20:33.775Z,99.90
2017-11-05T21:23:01.322Z,99.90
2017-11-05T21:25:28.808Z,99.90
2017-11-05T21:27:56.323Z,99.90
2017-11-05T21:30:23.898Z,99.90
2017-11-05T21:32:51.379Z,99.90
2017-11-05T21:35:18.865Z,99.90
2017-11-05T21:37:46.346Z,99.90
2017-11-05T21:40:14.592Z,99.90
2017-11-05T21:42:42.091Z,99.90
2017-11-05T21:45:09.587Z,99.90
2017-11-05T21:47:37.080Z,99.90
2017-11-05T21:50:04.580Z,99.90
2017-11-05T21:52:32.071Z,99.90
2017-11-05T21:54:59.563Z,99.90
2017-11-05T21:57:27.823Z,99.90
2017-11-05T21:59:55.310Z,99.90
2017-11-05T22:02:23.558Z,99.90
2017-11-05T22:04:51.041Z,99.90
2017-11-05T22:07:19.354Z,99.90
2017-11-05T22:09:46.837Z,99.90
2017-11-05T22:12:14.462Z,99.90
2017-11-05T22:14:41.955Z,99.90
2017-11-05T22:17:09.478Z,99.90
2017-11-05T22:19:37.271Z,99.90
2017-11-05T22:22:04.757Z,99.90
2017-11-05T22:24:32.243Z,99.90
2017-11-05T22:27:00.505Z,99.90
2017-11-05T22:29:28.423Z,99.90
2017-11-05T22:31:55.925Z,99.90
2017-11-05T22:34:23.423Z,99.90
2017-11-05T22:36:51.003Z,99.90
2017-11-05T22:39:18.496Z,99.90
2017-11-05T22:41:45.983Z,99.90
2017-11-05T22:44:14.233Z,99.90
2017-11-05T22:46:41.705Z,99.90
2017-11-05T22:49:09.196Z,99.90
2017-11-05T22:51:36.688Z,99.90
2017-11-05T22:54:04.179Z,99.90
2017-11-05T22:56:33.176Z,99.90
2017-11-05T22:59:00.952Z,99.90
2017-11-05T23:01:29.212Z,99.90
2017-11-05T23:03:56.699Z,99.90
2017-11-05T23:06:24.942Z,99.90
2017-11-05T23:08:52.417Z,99.90
2017-11-05T23:11:19.909Z,99.90
2017-11-05T23:13:47.394Z,99.90
2017-11-05T23:16:14.873Z,99.90
2017-11-05T23:18:42.365Z,99.90
2017-11-05T23:21:10.839Z,99.90
2017-11-05T23:23:39.082Z,99.90
2017-11-05T23:26:06.561Z,99.90
2017-11-05T23:28:34.033Z,99.90
2017-11-05T23:31:01.512Z,99.90
2017-11-05T23:33:29.187Z,99.90
2017-11-05T23:35:56.665Z,99.90
2017-11-05T23:38:24.156Z,99.90
2017-11-05T23:40:51.650Z,99.90
2017-11-05T23:43:19.903Z,99.90
2017-11-05T23:45:48.146Z,99.90
2017-11-05T23:48:15.621Z,99.90
2017-11-05T23:50:43.112Z,99.90
2017-11-05T23:53:12.534Z,99.90
2017-11-05T23:55:40.076Z,99.90
2017-11-05T23:58:08.335Z,99.90
